Terminal Aerodrome Forecast
Issued by NWS

Home | Current Version | Previous Version | Text Only | Print | Product List | Glossary On
Versions: 1 2 3 4 5 6 7 8 9 10 11 12 13 14 15 16 17 18 19 20
000
FTUS45 KGJT 201728
TAFASE
TAF
KASE 201728Z 2018/2118 33003KT P6SM SCT150
     FM202000 34005KT P6SM SCT080 BKN100
     FM210100 20005KT P6SM SCT080 BKN100
     FM211200 VRB03KT P6SM SCT200=

USA.gov is the U.S. government's official web portal to all federal, state and local government web resources and services.